sensor_id;sensor_type;location;lat;lon;timestamp;pressure;altitude;pressure_sealevel;temperature;humidity
33913;BME280;20200;52.084;5.224;2022-12-11T00:01:31;149208.0;;;1.67;100.0
33913;BME280;20200;52.084;5.224;2022-12-11T00:03:08;149200.0;;;1.64;100.0
33913;BME280;20200;52.084;5.224;2022-12-11T00:06:21;149235.0;;;1.78;100.0
33913;BME280;20200;52.084;5.224;2022-12-11T00:07:58;149195.0;;;1.62;100.0
33913;BME280;20200;52.084;5.224;2022-12-11T00:09:35;149197.0;;;1.63;100.0
33913;BME280;20200;52.084;5.224;2022-12-11T00:11:12;149207.0;;;1.67;100.0
33913;BME280;20200;52.084;5.224;2022-12-11T00:14:26;149213.0;;;1.69;100.0
33913;BME280;20200;52.084;5.224;2022-12-11T00:16:02;149200.0;;;1.64;100.0
33913;BME280;20200;52.084;5.224;2022-12-11T00:17:39;149216.0;;;1.7;100.0
33913;BME280;20200;52.084;5.224;2022-12-11T00:20:53;149211.0;;;1.68;100.0
33913;BME280;20200;52.084;5.224;2022-12-11T00:22:29;149214.0;;;1.69;100.0
33913;BME280;20200;52.084;5.224;2022-12-11T00:24:06;149223.0;;;1.73;100.0
33913;BME280;20200;52.084;5.224;2022-12-11T00:27:23;149234.0;;;1.78;100.0
33913;BME280;20200;52.084;5.224;2022-12-11T00:28:59;149208.0;;;1.67;100.0
33913;BME280;20200;52.084;5.224;2022-12-11T00:30:38;149221.0;;;1.72;100.0
33913;BME280;20200;52.084;5.224;2022-12-11T00:32:15;149218.0;;;1.71;100.0
33913;BME280;20200;52.084;5.224;2022-12-11T00:35:27;149233.0;;;1.77;100.0
33913;BME280;20200;52.084;5.224;2022-12-11T00:37:03;149221.0;;;1.72;100.0
33913;BME280;20200;52.084;5.224;2022-12-11T00:38:39;149203.0;;;1.65;100.0
33913;BME280;20200;52.084;5.224;2022-12-11T00:41:53;149219.0;;;1.71;100.0
33913;BME280;20200;52.084;5.224;2022-12-11T00:43:29;149229.0;;;1.76;100.0
33913;BME280;20200;52.084;5.224;2022-12-11T00:45:06;149225.0;;;1.74;100.0
33913;BME280;20200;52.084;5.224;2022-12-11T00:48:18;149217.0;;;1.71;100.0
33913;BME280;20200;52.084;5.224;2022-12-11T00:49:55;149233.0;;;1.77;100.0
33913;BME280;20200;52.084;5.224;2022-12-11T00:51:31;149223.0;;;1.73;100.0
33913;BME280;20200;52.084;5.224;2022-12-11T00:53:07;149241.0;;;1.8;100.0
33913;BME280;20200;52.084;5.224;2022-12-11T00:56:21;149234.0;;;1.78;100.0
33913;BME280;20200;52.084;5.224;2022-12-11T00:57:58;149232.0;;;1.77;100.0
33913;BME280;20200;52.084;5.224;2022-12-11T00:59:35;149213.0;;;1.69;100.0
33913;BME280;20200;52.084;5.224;2022-12-11T01:02:51;149212.0;;;1.69;100.0
33913;BME280;20200;52.084;5.224;2022-12-11T01:04:27;149214.0;;;1.69;100.0
33913;BME280;20200;52.084;5.224;2022-12-11T01:06:04;149219.0;;;1.71;100.0
33913;BME280;20200;52.084;5.224;2022-12-11T01:07:42;149217.0;;;1.71;100.0
33913;BME280;20200;52.084;5.224;2022-12-11T01:12:11;149200.0;;;1.64;100.0
33913;BME280;20200;52.084;5.224;2022-12-11T01:15:25;149219.0;;;1.71;100.0
33913;BME280;20200;52.084;5.224;2022-12-11T01:17:02;149210.0;;;1.68;100.0
33913;BME280;20200;52.084;5.224;2022-12-11T01:18:39;149217.0;;;1.71;100.0
33913;BME280;20200;52.084;5.224;2022-12-11T01:20:17;149217.0;;;1.71;100.0
33913;BME280;20200;52.084;5.224;2022-12-11T01:23:31;149228.0;;;1.75;100.0
33913;BME280;20200;52.084;5.224;2022-12-11T01:25:09;149209.0;;;1.67;100.0
33913;BME280;20200;52.084;5.224;2022-12-11T01:26:45;149202.0;;;1.65;100.0
33913;BME280;20200;52.084;5.224;2022-12-11T01:29:58;149232.0;;;1.77;100.0
33913;BME280;20200;52.084;5.224;2022-12-11T01:31:34;149260.0;;;1.88;100.0
33913;BME280;20200;52.084;5.224;2022-12-11T01:33:10;149248.0;;;1.83;100.0
33913;BME280;20200;52.084;5.224;2022-12-11T01:36:25;149247.0;;;1.83;100.0
33913;BME280;20200;52.084;5.224;2022-12-11T01:38:02;149245.0;;;1.82;100.0
33913;BME280;20200;52.084;5.224;2022-12-11T01:39:38;149240.0;;;1.8;100.0
33913;BME280;20200;52.084;5.224;2022-12-11T01:41:15;149247.0;;;1.83;100.0
33913;BME280;20200;52.084;5.224;2022-12-11T01:45:21;149264.0;;;1.9;100.0
33913;BME280;20200;52.084;5.224;2022-12-11T01:46:59;149255.0;;;1.86;100.0
33913;BME280;20200;52.084;5.224;2022-12-11T01:48:36;149252.0;;;1.85;100.0
33913;BME280;20200;52.084;5.224;2022-12-11T01:50:14;149242.0;;;1.81;100.0
33913;BME280;20200;52.084;5.224;2022-12-11T01:51:53;149254.0;;;1.86;100.0
33913;BME280;20200;52.084;5.224;2022-12-11T01:55:21;149288.0;;;1.99;100.0
33913;BME280;20200;52.084;5.224;2022-12-11T01:57:02;149261.0;;;1.88;100.0
33913;BME280;20200;52.084;5.224;2022-12-11T01:58:43;149254.0;;;1.86;100.0
33913;BME280;20200;52.084;5.224;2022-12-11T02:00:22;149266.0;;;1.9;100.0
33913;BME280;20200;52.084;5.224;2022-12-11T02:03:41;149270.0;;;1.92;100.0
33913;BME280;20200;52.084;5.224;2022-12-11T02:05:18;149271.0;;;1.93;100.0
33913;BME280;20200;52.084;5.224;2022-12-11T02:06:54;149270.0;;;1.92;100.0
33913;BME280;20200;52.084;5.224;2022-12-11T02:08:31;149245.0;;;1.82;100.0
33913;BME280;20200;52.084;5.224;2022-12-11T02:11:51;149251.0;;;1.84;100.0
33913;BME280;20200;52.084;5.224;2022-12-11T02:13:43;149257.0;;;1.87;100.0
33913;BME280;20200;52.084;5.224;2022-12-11T02:15:30;149263.0;;;1.89;100.0
33913;BME280;20200;52.084;5.224;2022-12-11T02:17:12;149278.0;;;1.95;100.0
33913;BME280;20200;52.084;5.224;2022-12-11T02:18:56;149303.0;;;2.05;100.0
33913;BME280;20200;52.084;5.224;2022-12-11T02:22:24;149297.0;;;2.04;100.0
33913;BME280;20200;52.084;5.224;2022-12-11T02:24:26;149272.0;;;1.93;100.0
33913;BME280;20200;52.084;5.224;2022-12-11T02:26:33;149268.0;;;1.91;100.0
33913;BME280;20200;52.084;5.224;2022-12-11T02:28:24;149277.0;;;1.95;100.0
33913;BME280;20200;52.084;5.224;2022-12-11T02:30:06;149275.0;;;1.94;100.0
33913;BME280;20200;52.084;5.224;2022-12-11T02:31:45;149287.0;;;1.99;100.0
33913;BME280;20200;52.084;5.224;2022-12-11T02:35:14;149291.0;;;2.0;100.0
33913;BME280;20200;52.084;5.224;2022-12-11T02:36:57;149298.0;;;2.04;100.0
33913;BME280;20200;52.084;5.224;2022-12-11T02:38:40;149317.0;;;2.11;100.0
33913;BME280;20200;52.084;5.224;2022-12-11T02:40:22;149318.0;;;2.11;100.0
33913;BME280;20200;52.084;5.224;2022-12-11T02:42:03;149297.0;;;2.04;100.0
33913;BME280;20200;52.084;5.224;2022-12-11T02:45:19;149299.0;;;2.04;100.0
33913;BME280;20200;52.084;5.224;2022-12-11T02:46:58;149290.0;;;2.0;100.0
33913;BME280;20200;52.084;5.224;2022-12-11T02:48:36;149297.0;;;2.04;100.0
33913;BME280;20200;52.084;5.224;2022-12-11T02:50:18;149292.0;;;2.02;100.0
33913;BME280;20200;52.084;5.224;2022-12-11T02:53:38;149297.0;;;2.04;100.0
33913;BME280;20200;52.084;5.224;2022-12-11T02:55:18;149318.0;;;2.11;100.0
33913;BME280;20200;52.084;5.224;2022-12-11T02:57:00;149336.0;;;2.19;100.0
33913;BME280;20200;52.084;5.224;2022-12-11T02:58:44;149287.0;;;1.99;100.0
33913;BME280;20200;52.084;5.224;2022-12-11T03:01:59;149282.0;;;1.97;100.0
33913;BME280;20200;52.084;5.224;2022-12-11T03:03:36;149293.0;;;2.02;100.0
33913;BME280;20200;52.084;5.224;2022-12-11T03:05:13;149282.0;;;1.97;100.0
33913;BME280;20200;52.084;5.224;2022-12-11T03:08:37;149316.0;;;2.11;100.0
33913;BME280;20200;52.084;5.224;2022-12-11T03:10:16;149296.0;;;2.02;100.0
33913;BME280;20200;52.084;5.224;2022-12-11T03:11:54;149287.0;;;1.99;100.0
33913;BME280;20200;52.084;5.224;2022-12-11T03:13:31;149302.0;;;2.05;100.0
33913;BME280;20200;52.084;5.224;2022-12-11T03:16:55;149321.0;;;2.13;100.0
33913;BME280;20200;52.084;5.224;2022-12-11T03:18:38;149333.0;;;2.17;100.0
33913;BME280;20200;52.084;5.224;2022-12-11T03:20:26;149318.0;;;2.11;100.0
33913;BME280;20200;52.084;5.224;2022-12-11T03:22:10;149302.0;;;2.05;100.0
33913;BME280;20200;52.084;5.224;2022-12-11T03:23:57;149322.0;;;2.13;100.0
33913;BME280;20200;52.084;5.224;2022-12-11T03:27:24;149348.0;;;2.23;100.0
33913;BME280;20200;52.084;5.224;2022-12-11T03:29:14;149340.0;;;2.21;99.81
33913;BME280;20200;52.084;5.224;2022-12-11T03:30:55;149353.0;;;2.25;99.54
33913;BME280;20200;52.084;5.224;2022-12-11T03:32:37;149343.0;;;2.21;99.49
33913;BME280;20200;52.084;5.224;2022-12-11T03:34:18;149349.0;;;2.25;99.29
33913;BME280;20200;52.084;5.224;2022-12-11T03:37:41;149320.0;;;2.12;99.0
33913;BME280;20200;52.084;5.224;2022-12-11T03:39:23;149332.0;;;2.17;98.89
33913;BME280;20200;52.084;5.224;2022-12-11T03:41:03;149329.0;;;2.16;98.98
33913;BME280;20200;52.084;5.224;2022-12-11T03:42:46;149329.0;;;2.16;99.09
33913;BME280;20200;52.084;5.224;2022-12-11T03:46:07;149310.0;;;2.08;99.06
33913;BME280;20200;52.084;5.224;2022-12-11T03:47:45;149328.0;;;2.15;99.05
33913;BME280;20200;52.084;5.224;2022-12-11T03:49:26;149339.0;;;2.21;98.85
33913;BME280;20200;52.084;5.224;2022-12-11T03:51:05;149351.0;;;2.25;98.87
33913;BME280;20200;52.084;5.224;2022-12-11T03:54:23;149345.0;;;2.23;98.45
33913;BME280;20200;52.084;5.224;2022-12-11T03:56:00;149316.0;;;2.11;98.66
33913;BME280;20200;52.084;5.224;2022-12-11T03:57:39;149282.0;;;1.97;98.85
33913;BME280;20200;52.084;5.224;2022-12-11T03:59:16;149290.0;;;2.0;99.02
33913;BME280;20200;52.084;5.224;2022-12-11T04:02:28;149314.0;;;2.1;98.93
33913;BME280;20200;52.084;5.224;2022-12-11T04:04:04;149311.0;;;2.08;98.45
33913;BME280;20200;52.084;5.224;2022-12-11T04:05:42;149323.0;;;2.13;98.24
33913;BME280;20200;52.084;5.224;2022-12-11T04:08:56;149334.0;;;2.19;97.83
33913;BME280;20200;52.084;5.224;2022-12-11T04:10:32;149317.0;;;2.11;97.95
33913;BME280;20200;52.084;5.224;2022-12-11T04:12:08;149313.0;;;2.09;98.42
33913;BME280;20200;52.084;5.224;2022-12-11T04:15:22;149275.0;;;1.94;98.62
33913;BME280;20200;52.084;5.224;2022-12-11T04:17:00;149267.0;;;1.91;98.87
33913;BME280;20200;52.084;5.224;2022-12-11T04:24:28;149278.0;;;1.95;99.21
33913;BME280;20200;52.084;5.224;2022-12-11T04:26:06;149271.0;;;1.92;98.88
33913;BME280;20200;52.084;5.224;2022-12-11T04:27:52;149290.0;;;2.0;98.61
33913;BME280;20200;52.084;5.224;2022-12-11T04:29:28;149296.0;;;2.02;98.55
33913;BME280;20200;52.084;5.224;2022-12-11T04:31:05;149295.0;;;2.02;98.2
33913;BME280;20200;52.084;5.224;2022-12-11T04:32:41;149290.0;;;2.0;98.31
33913;BME280;20200;52.084;5.224;2022-12-11T04:35:56;149293.0;;;2.02;98.13
33913;BME280;20200;52.084;5.224;2022-12-11T04:37:34;149269.0;;;1.92;97.84
33913;BME280;20200;52.084;5.224;2022-12-11T04:39:10;149284.0;;;1.98;97.81
33913;BME280;20200;52.084;5.224;2022-12-11T04:42:22;149257.0;;;1.87;97.9
33913;BME280;20200;52.084;5.224;2022-12-11T04:43:58;149261.0;;;1.88;98.15
33913;BME280;20200;52.084;5.224;2022-12-11T04:45:34;149290.0;;;2.0;98.01
33913;BME280;20200;52.084;5.224;2022-12-11T04:48:48;149319.0;;;2.12;97.42
33913;BME280;20200;52.084;5.224;2022-12-11T04:50:24;149279.0;;;1.96;97.34
33913;BME280;20200;52.084;5.224;2022-12-11T04:52:01;149268.0;;;1.91;97.53
33913;BME280;20200;52.084;5.224;2022-12-11T04:53:38;149287.0;;;1.99;97.64
33913;BME280;20200;52.084;5.224;2022-12-11T04:56:50;149273.0;;;1.93;97.61
33913;BME280;20200;52.084;5.224;2022-12-11T04:58:26;149297.0;;;2.04;97.35
33913;BME280;20200;52.084;5.224;2022-12-11T05:00:07;149283.0;;;1.97;97.15
33913;BME280;20200;52.084;5.224;2022-12-11T05:03:21;149274.0;;;1.94;97.22
33913;BME280;20200;52.084;5.224;2022-12-11T05:04:59;149250.0;;;1.84;97.09
33913;BME280;20200;52.084;5.224;2022-12-11T05:06:35;149228.0;;;1.75;97.49
33913;BME280;20200;52.084;5.224;2022-12-11T05:09:47;149233.0;;;1.77;97.31
33913;BME280;20200;52.084;5.224;2022-12-11T05:11:23;149254.0;;;1.86;97.37
33913;BME280;20200;52.084;5.224;2022-12-11T05:13:00;149249.0;;;1.84;97.1
33913;BME280;20200;52.084;5.224;2022-12-11T05:14:36;149224.0;;;1.73;97.31
33913;BME280;20200;52.084;5.224;2022-12-11T05:17:53;149244.0;;;1.81;97.24
33913;BME280;20200;52.084;5.224;2022-12-11T05:19:28;149246.0;;;1.82;97.32
33913;BME280;20200;52.084;5.224;2022-12-11T05:21:07;149265.0;;;1.9;97.15
33913;BME280;20200;52.084;5.224;2022-12-11T05:24:22;149260.0;;;1.88;96.89
33913;BME280;20200;52.084;5.224;2022-12-11T05:26:00;149251.0;;;1.84;96.98
33913;BME280;20200;52.084;5.224;2022-12-11T05:27:37;149258.0;;;1.87;96.95
33913;BME280;20200;52.084;5.224;2022-12-11T05:29:13;149267.0;;;1.91;96.88
33913;BME280;20200;52.084;5.224;2022-12-11T05:32:31;149256.0;;;1.86;96.76
33913;BME280;20200;52.084;5.224;2022-12-11T05:34:07;149260.0;;;1.88;96.78
33913;BME280;20200;52.084;5.224;2022-12-11T05:35:46;149261.0;;;1.88;96.5
33913;BME280;20200;52.084;5.224;2022-12-11T05:38:59;149268.0;;;1.91;96.47
33913;BME280;20200;52.084;5.224;2022-12-11T05:40:37;149260.0;;;1.88;96.49
33913;BME280;20200;52.084;5.224;2022-12-11T05:42:13;149252.0;;;1.85;96.55
33913;BME280;20200;52.084;5.224;2022-12-11T05:43:50;149263.0;;;1.89;96.62
33913;BME280;20200;52.084;5.224;2022-12-11T05:47:03;149249.0;;;1.83;96.57
33913;BME280;20200;52.084;5.224;2022-12-11T05:48:40;149258.0;;;1.87;96.31
33913;BME280;20200;52.084;5.224;2022-12-11T05:50:17;149232.0;;;1.77;96.38
33913;BME280;20200;52.084;5.224;2022-12-11T05:53:29;149253.0;;;1.85;96.31
33913;BME280;20200;52.084;5.224;2022-12-11T05:55:07;149251.0;;;1.84;96.38
33913;BME280;20200;52.084;5.224;2022-12-11T05:56:44;149253.0;;;1.85;96.59
33913;BME280;20200;52.084;5.224;2022-12-11T05:59:58;149249.0;;;1.83;96.48
33913;BME280;20200;52.084;5.224;2022-12-11T06:01:36;149258.0;;;1.87;96.27
33913;BME280;20200;52.084;5.224;2022-12-11T06:03:14;149245.0;;;1.82;96.19
33913;BME280;20200;52.084;5.224;2022-12-11T06:04:50;149256.0;;;1.86;96.38
33913;BME280;20200;52.084;5.224;2022-12-11T06:08:04;149254.0;;;1.85;96.01
33913;BME280;20200;52.084;5.224;2022-12-11T06:09:41;149253.0;;;1.85;95.95
33913;BME280;20200;52.084;5.224;2022-12-11T06:11:18;149276.0;;;1.94;95.95
33913;BME280;20200;52.084;5.224;2022-12-11T06:14:30;149270.0;;;1.92;95.94
33913;BME280;20200;52.084;5.224;2022-12-11T06:16:08;149301.0;;;2.04;95.45
33913;BME280;20200;52.084;5.224;2022-12-11T06:17:45;149302.0;;;2.05;95.35
33913;BME280;20200;52.084;5.224;2022-12-11T06:20:58;149275.0;;;1.94;95.49
33913;BME280;20200;52.084;5.224;2022-12-11T06:22:35;149258.0;;;1.87;95.69
33913;BME280;20200;52.084;5.224;2022-12-11T06:24:11;149254.0;;;1.85;95.77
33913;BME280;20200;52.084;5.224;2022-12-11T06:25:47;149251.0;;;1.84;95.45
33913;BME280;20200;52.084;5.224;2022-12-11T06:28:59;149267.0;;;1.91;95.48
33913;BME280;20200;52.084;5.224;2022-12-11T06:30:37;149251.0;;;1.84;95.74
33913;BME280;20200;52.084;5.224;2022-12-11T06:32:14;149249.0;;;1.83;95.68
33913;BME280;20200;52.084;5.224;2022-12-11T06:35:26;149277.0;;;1.95;95.59
33913;BME280;20200;52.084;5.224;2022-12-11T06:37:02;149245.0;;;1.82;95.89
33913;BME280;20200;52.084;5.224;2022-12-11T06:38:39;149258.0;;;1.87;95.72
33913;BME280;20200;52.084;5.224;2022-12-11T06:41:53;149251.0;;;1.84;95.69
33913;BME280;20200;52.084;5.224;2022-12-11T06:43:30;149244.0;;;1.81;95.8
33913;BME280;20200;52.084;5.224;2022-12-11T06:45:08;149209.0;;;1.68;96.09
33913;BME280;20200;52.084;5.224;2022-12-11T06:46:44;149213.0;;;1.69;96.16
33913;BME280;20200;52.084;5.224;2022-12-11T06:49:56;149239.0;;;1.8;96.08
33913;BME280;20200;52.084;5.224;2022-12-11T06:51:33;149241.0;;;1.8;95.82
33913;BME280;20200;52.084;5.224;2022-12-11T06:53:10;149228.0;;;1.75;95.64
33913;BME280;20200;52.084;5.224;2022-12-11T06:56:24;149221.0;;;1.72;95.69
33913;BME280;20200;52.084;5.224;2022-12-11T06:58:00;149233.0;;;1.77;95.52
33913;BME280;20200;52.084;5.224;2022-12-11T06:59:37;149226.0;;;1.74;95.49
33913;BME280;20200;52.084;5.224;2022-12-11T07:02:52;149212.0;;;1.69;95.62
33913;BME280;20200;52.084;5.224;2022-12-11T07:04:29;149221.0;;;1.72;95.74
33913;BME280;20200;52.084;5.224;2022-12-11T07:06:06;149231.0;;;1.76;95.46
33913;BME280;20200;52.084;5.224;2022-12-11T07:07:43;149217.0;;;1.71;95.45
33913;BME280;20200;52.084;5.224;2022-12-11T07:11:02;149203.0;;;1.65;95.66
33913;BME280;20200;52.084;5.224;2022-12-11T07:12:38;149219.0;;;1.71;95.97
33913;BME280;20200;52.084;5.224;2022-12-11T07:14:14;149221.0;;;1.72;95.71
33913;BME280;20200;52.084;5.224;2022-12-11T07:17:27;149235.0;;;1.78;95.38
33913;BME280;20200;52.084;5.224;2022-12-11T07:19:04;149221.0;;;1.72;95.28
33913;BME280;20200;52.084;5.224;2022-12-11T07:20:40;149218.0;;;1.71;95.16
33913;BME280;20200;52.084;5.224;2022-12-11T07:22:16;149204.0;;;1.65;95.34
33913;BME280;20200;52.084;5.224;2022-12-11T07:25:29;149216.0;;;1.7;95.37
33913;BME280;20200;52.084;5.224;2022-12-11T07:27:05;149208.0;;;1.67;95.21
33913;BME280;20200;52.084;5.224;2022-12-11T07:28:42;149206.0;;;1.66;95.18
33913;BME280;20200;52.084;5.224;2022-12-11T07:31:55;149228.0;;;1.75;94.98
33913;BME280;20200;52.084;5.224;2022-12-11T07:33:31;149200.0;;;1.64;94.78
33913;BME280;20200;52.084;5.224;2022-12-11T07:35:08;149213.0;;;1.69;95.04
33913;BME280;20200;52.084;5.224;2022-12-11T07:38:20;149204.0;;;1.65;94.71
33913;BME280;20200;52.084;5.224;2022-12-11T07:39:57;149224.0;;;1.73;94.61
33913;BME280;20200;52.084;5.224;2022-12-11T07:41:34;149190.0;;;1.6;94.71
33913;BME280;20200;52.084;5.224;2022-12-11T07:43:10;149196.0;;;1.62;94.76
33913;BME280;20200;52.084;5.224;2022-12-11T07:46:25;149213.0;;;1.69;94.63
33913;BME280;20200;52.084;5.224;2022-12-11T07:48:03;149244.0;;;1.81;94.45
33913;BME280;20200;52.084;5.224;2022-12-11T07:49:40;149225.0;;;1.74;94.52
33913;BME280;20200;52.084;5.224;2022-12-11T07:52:55;149214.0;;;1.69;94.47
33913;BME280;20200;52.084;5.224;2022-12-11T07:54:31;149209.0;;;1.67;94.61
33913;BME280;20200;52.084;5.224;2022-12-11T07:56:08;149223.0;;;1.73;94.14
33913;BME280;20200;52.084;5.224;2022-12-11T07:57:44;149178.0;;;1.55;94.31
33913;BME280;20200;52.084;5.224;2022-12-11T08:00:57;149195.0;;;1.62;94.65
33913;BME280;20200;52.084;5.224;2022-12-11T08:02:33;149204.0;;;1.65;94.29
33913;BME280;20200;52.084;5.224;2022-12-11T08:04:11;149168.0;;;1.51;94.25
33913;BME280;20200;52.084;5.224;2022-12-11T08:07:24;149157.0;;;1.47;94.49
33913;BME280;20200;52.084;5.224;2022-12-11T08:09:02;149124.0;;;1.33;94.47
33913;BME280;20200;52.084;5.224;2022-12-11T08:10:40;149130.0;;;1.36;94.82
33913;BME280;20200;52.084;5.224;2022-12-11T08:13:52;149113.0;;;1.29;94.91
33913;BME280;20200;52.084;5.224;2022-12-11T08:15:29;149118.0;;;1.31;94.77
33913;BME280;20200;52.084;5.224;2022-12-11T08:17:05;149087.0;;;1.19;94.26
33913;BME280;20200;52.084;5.224;2022-12-11T08:18:42;149120.0;;;1.32;94.42
33913;BME280;20200;52.084;5.224;2022-12-11T08:21:56;149109.0;;;1.27;93.72
33913;BME280;20200;52.084;5.224;2022-12-11T08:25:09;149134.0;;;1.37;93.77
33913;BME280;20200;52.084;5.224;2022-12-11T08:28:23;149107.0;;;1.26;93.6
33913;BME280;20200;52.084;5.224;2022-12-11T08:30:00;149135.0;;;1.38;93.72
33913;BME280;20200;52.084;5.224;2022-12-11T08:31:36;149138.0;;;1.39;93.54
33913;BME280;20200;52.084;5.224;2022-12-11T08:34:50;149137.0;;;1.39;93.54
33913;BME280;20200;52.084;5.224;2022-12-11T08:36:26;149154.0;;;1.46;93.01
33913;BME280;20200;52.084;5.224;2022-12-11T08:38:03;149158.0;;;1.47;93.12
33913;BME280;20200;52.084;5.224;2022-12-11T08:39:40;149171.0;;;1.52;93.03
33913;BME280;20200;52.084;5.224;2022-12-11T08:42:55;149180.0;;;1.56;92.65
33913;BME280;20200;52.084;5.224;2022-12-11T08:44:31;149227.0;;;1.75;92.79
33913;BME280;20200;52.084;5.224;2022-12-11T08:46:08;149228.0;;;1.75;92.15
33913;BME280;20200;52.084;5.224;2022-12-11T08:49:21;149190.0;;;1.6;92.34
33913;BME280;20200;52.084;5.224;2022-12-11T08:50:58;149209.0;;;1.68;92.32
33913;BME280;20200;52.084;5.224;2022-12-11T08:52:35;149258.0;;;1.87;91.85
33913;BME280;20200;52.084;5.224;2022-12-11T08:55:47;149277.0;;;1.95;91.28
33913;BME280;20200;52.084;5.224;2022-12-11T08:57:24;149337.0;;;2.19;90.65
33913;BME280;20200;52.084;5.224;2022-12-11T08:59:00;149309.0;;;2.08;90.67
33913;BME280;20200;52.084;5.224;2022-12-11T09:00:37;149321.0;;;2.12;90.52
33913;BME280;20200;52.084;5.224;2022-12-11T09:03:51;149318.0;;;2.11;91.16
33913;BME280;20200;52.084;5.224;2022-12-11T09:05:28;149346.0;;;2.23;90.78
33913;BME280;20200;52.084;5.224;2022-12-11T09:07:04;149315.0;;;2.1;90.54
33913;BME280;20200;52.084;5.224;2022-12-11T09:10:18;149323.0;;;2.13;90.73
33913;BME280;20200;52.084;5.224;2022-12-11T09:11:55;149322.0;;;2.13;90.57
33913;BME280;20200;52.084;5.224;2022-12-11T09:13:32;149316.0;;;2.11;90.52
33913;BME280;20200;52.084;5.224;2022-12-11T09:15:10;149328.0;;;2.15;90.34
33913;BME280;20200;52.084;5.224;2022-12-11T09:18:22;149299.0;;;2.04;90.5
33913;BME280;20200;52.084;5.224;2022-12-11T09:19:59;149318.0;;;2.11;90.89
33913;BME280;20200;52.084;5.224;2022-12-11T09:21:35;149315.0;;;2.1;90.82
33913;BME280;20200;52.084;5.224;2022-12-11T09:24:47;149331.0;;;2.16;90.9
33913;BME280;20200;52.084;5.224;2022-12-11T09:26:24;149318.0;;;2.11;91.04
33913;BME280;20200;52.084;5.224;2022-12-11T09:28:02;149330.0;;;2.16;91.03
33913;BME280;20200;52.084;5.224;2022-12-11T09:31:17;149328.0;;;2.15;91.05
33913;BME280;20200;52.084;5.224;2022-12-11T09:32:54;149319.0;;;2.12;91.12
33913;BME280;20200;52.084;5.224;2022-12-11T09:34:30;149321.0;;;2.13;90.91
33913;BME280;20200;52.084;5.224;2022-12-11T09:36:08;149306.0;;;2.06;91.21
33913;BME280;20200;52.084;5.224;2022-12-11T09:39:20;149319.0;;;2.12;91.14
33913;BME280;20200;52.084;5.224;2022-12-11T09:40:56;149320.0;;;2.12;91.59
33913;BME280;20200;52.084;5.224;2022-12-11T09:42:46;149332.0;;;2.17;91.35
33913;BME280;20200;52.084;5.224;2022-12-11T09:44:33;149359.0;;;2.29;91.15
33913;BME280;20200;52.084;5.224;2022-12-11T09:47:54;149327.0;;;2.15;90.72
33913;BME280;20200;52.084;5.224;2022-12-11T09:49:36;149358.0;;;2.27;90.89
33913;BME280;20200;52.084;5.224;2022-12-11T09:51:17;149366.0;;;2.31;90.99
33913;BME280;20200;52.084;5.224;2022-12-11T09:53:12;149389.0;;;2.4;90.59
33913;BME280;20200;52.084;5.224;2022-12-11T09:56:36;149384.0;;;2.38;90.7
33913;BME280;20200;52.084;5.224;2022-12-11T09:58:21;149391.0;;;2.4;90.37
33913;BME280;20200;52.084;5.224;2022-12-11T10:00:12;149315.0;;;2.1;91.06
33913;BME280;20200;52.084;5.224;2022-12-11T10:01:54;149341.0;;;2.21;91.38
33913;BME280;20200;52.084;5.224;2022-12-11T10:03:46;149330.0;;;2.16;91.58
33913;BME280;20200;52.084;5.224;2022-12-11T10:05:35;149313.0;;;2.09;91.41
33913;BME280;20200;52.084;5.224;2022-12-11T10:09:14;149289.0;;;2.0;91.76
33913;BME280;20200;52.084;5.224;2022-12-11T10:10:56;149275.0;;;1.94;92.0
33913;BME280;20200;52.084;5.224;2022-12-11T10:12:45;149294.0;;;2.02;92.33
33913;BME280;20200;52.084;5.224;2022-12-11T10:14:35;149296.0;;;2.02;92.48
33913;BME280;20200;52.084;5.224;2022-12-11T10:16:25;149311.0;;;2.09;91.6
33913;BME280;20200;52.084;5.224;2022-12-11T10:18:11;149286.0;;;1.98;92.11
33913;BME280;20200;52.084;5.224;2022-12-11T10:21:32;149276.0;;;1.94;92.44
33913;BME280;20200;52.084;5.224;2022-12-11T10:23:17;149264.0;;;1.9;92.79
33913;BME280;20200;52.084;5.224;2022-12-11T10:24:57;149277.0;;;1.95;92.79
33913;BME280;20200;52.084;5.224;2022-12-11T10:26:37;149295.0;;;2.02;92.95
33913;BME280;20200;52.084;5.224;2022-12-11T10:30:00;149292.0;;;2.02;92.95
33913;BME280;20200;52.084;5.224;2022-12-11T10:31:41;149279.0;;;1.96;92.45
33913;BME280;20200;52.084;5.224;2022-12-11T10:33:29;149300.0;;;2.04;92.79
33913;BME280;20200;52.084;5.224;2022-12-11T10:35:18;149322.0;;;2.13;92.58
33913;BME280;20200;52.084;5.224;2022-12-11T10:36:54;149313.0;;;2.09;92.77
33913;BME280;20200;52.084;5.224;2022-12-11T10:40:17;149309.0;;;2.08;92.85
33913;BME280;20200;52.084;5.224;2022-12-11T10:41:55;149318.0;;;2.11;92.9
33913;BME280;20200;52.084;5.224;2022-12-11T10:43:34;149343.0;;;2.21;92.87
33913;BME280;20200;52.084;5.224;2022-12-11T10:45:14;149375.0;;;2.34;92.54
33913;BME280;20200;52.084;5.224;2022-12-11T10:48:44;149377.0;;;2.35;92.33
33913;BME280;20200;52.084;5.224;2022-12-11T10:50:23;149417.0;;;2.52;92.1
33913;BME280;20200;52.084;5.224;2022-12-11T10:52:01;149396.0;;;2.42;92.11
33913;BME280;20200;52.084;5.224;2022-12-11T10:53:49;149386.0;;;2.39;92.03
33913;BME280;20200;52.084;5.224;2022-12-11T10:57:07;149408.0;;;2.48;92.04
33913;BME280;20200;52.084;5.224;2022-12-11T10:58:48;149365.0;;;2.31;92.21
33913;BME280;20200;52.084;5.224;2022-12-11T11:00:30;149399.0;;;2.44;92.46
33913;BME280;20200;52.084;5.224;2022-12-11T11:03:58;149362.0;;;2.29;92.54
33913;BME280;20200;52.084;5.224;2022-12-11T11:07:19;149407.0;;;2.48;92.41
33913;BME280;20200;52.084;5.224;2022-12-11T11:08:57;149427.0;;;2.56;92.24
33913;BME280;20200;52.084;5.224;2022-12-11T11:10:35;149444.0;;;2.62;92.3
33913;BME280;20200;52.084;5.224;2022-12-11T11:14:12;149446.0;;;2.63;91.94
33913;BME280;20200;52.084;5.224;2022-12-11T11:15:58;149451.0;;;2.65;91.4
33913;BME280;20200;52.084;5.224;2022-12-11T11:17:41;149487.0;;;2.79;91.52
33913;BME280;20200;52.084;5.224;2022-12-11T11:19:21;149456.0;;;2.67;91.5
33913;BME280;20200;52.084;5.224;2022-12-11T11:21:00;149454.0;;;2.66;91.82
33913;BME280;20200;52.084;5.224;2022-12-11T11:24:23;149484.0;;;2.78;91.33
33913;BME280;20200;52.084;5.224;2022-12-11T11:26:06;149449.0;;;2.64;91.52